createdAt,value
2023-03-31T00:01:13.492Z,94.34
2023-03-31T00:06:20.845Z,94.18
2023-03-31T00:11:29.390Z,94.24
2023-03-31T00:16:37.319Z,94.70
2023-03-31T00:21:44.230Z,94.67
2023-03-31T00:26:52.278Z,95.47
2023-03-31T00:32:00.205Z,95.10
2023-03-31T00:37:07.147Z,94.40
2023-03-31T00:42:15.354Z,94.70
2023-03-31T00:47:23.438Z,94.28
2023-03-31T00:52:38.050Z,94.77
2023-03-31T00:57:47.327Z,93.97
2023-03-31T01:02:56.480Z,94.39
2023-03-31T01:08:04.060Z,93.66
2023-03-31T01:13:15.230Z,94.17
2023-03-31T01:18:22.570Z,94.73
2023-03-31T01:24:27.954Z,94.30
2023-03-31T01:30:10.572Z,94.07
2023-03-31T01:36:12.898Z,94.10
2023-03-31T01:41:51.136Z,93.95
2023-03-31T01:47:03.905Z,94.62
2023-03-31T01:52:19.432Z,94.27
2023-03-31T01:57:34.795Z,93.75
2023-03-31T02:02:48.089Z,93.25
2023-03-31T02:08:00.369Z,93.83
2023-03-31T02:13:09.227Z,93.76
2023-03-31T02:18:19.799Z,93.18
2023-03-31T02:23:30.126Z,92.79
2023-03-31T02:28:39.167Z,92.50
2023-03-31T02:33:45.760Z,92.72
2023-03-31T02:38:58.588Z,92.69
2023-03-31T02:44:08.949Z,92.54
2023-03-31T02:49:17.476Z,92.34
2023-03-31T02:54:55.484Z,92.21
2023-03-31T03:00:16.893Z,91.97
2023-03-31T03:05:38.040Z,91.80
2023-03-31T03:11:18.392Z,92.10
2023-03-31T03:16:28.763Z,91.84
2023-03-31T03:21:35.755Z,91.74
2023-03-31T03:26:42.161Z,91.07
2023-03-31T03:31:50.140Z,91.21
2023-03-31T03:36:56.554Z,90.94
2023-03-31T03:42:02.984Z,91.29
2023-03-31T03:47:11.049Z,92.27
2023-03-31T03:52:17.664Z,91.20
2023-03-31T03:57:24.107Z,91.34
2023-03-31T04:02:31.940Z,91.43
2023-03-31T04:07:38.330Z,91.51
2023-03-31T04:12:44.890Z,91.90
2023-03-31T04:17:55.061Z,91.28
2023-03-31T04:23:02.960Z,92.16
2023-03-31T04:28:10.882Z,91.80
2023-03-31T04:33:19.446Z,91.68
2023-03-31T04:38:33.974Z,91.89
2023-03-31T04:43:41.541Z,93.00
2023-03-31T04:48:49.791Z,92.87
2023-03-31T04:53:56.184Z,93.11
2023-03-31T04:59:04.194Z,93.21
2023-03-31T05:04:12.329Z,93.22
2023-03-31T05:09:19.223Z,93.05
2023-03-31T05:14:25.967Z,92.90
2023-03-31T05:19:34.008Z,93.58
2023-03-31T05:24:40.427Z,93.18
2023-03-31T05:29:46.905Z,93.50
2023-03-31T05:34:59.007Z,93.44
2023-03-31T05:40:11.563Z,93.28
2023-03-31T05:45:19.183Z,93.26
2023-03-31T05:50:27.508Z,93.20
2023-03-31T05:55:34.158Z,94.02
2023-03-31T06:00:40.902Z,93.65
2023-03-31T06:05:54.314Z,94.21
2023-03-31T06:11:00.725Z,94.66
2023-03-31T06:16:09.090Z,94.50
2023-03-31T06:21:19.586Z,93.89
2023-03-31T06:26:26.284Z,94.07
2023-03-31T06:31:33.928Z,93.82
2023-03-31T06:36:42.329Z,93.72
2023-03-31T06:41:48.621Z,93.71
2023-03-31T06:47:04.285Z,93.18
2023-03-31T06:52:12.609Z,93.45
2023-03-31T06:57:19.095Z,93.15
2023-03-31T07:02:25.731Z,92.72
2023-03-31T07:07:35.910Z,92.37
2023-03-31T07:12:42.288Z,92.13
2023-03-31T07:17:51.466Z,92.30
2023-03-31T07:22:59.851Z,91.82
2023-03-31T07:28:08.342Z,91.88
2023-03-31T07:33:14.715Z,91.14
2023-03-31T07:38:22.880Z,90.75
2023-03-31T07:43:29.490Z,90.73
2023-03-31T07:48:36.194Z,90.35
2023-03-31T07:53:44.288Z,90.38
2023-03-31T07:58:51.842Z,90.61
2023-03-31T08:03:59.497Z,90.22
2023-03-31T08:09:08.802Z,90.20
2023-03-31T08:14:15.030Z,90.46
2023-03-31T08:19:21.484Z,90.08
2023-03-31T08:24:29.383Z,89.75
2023-03-31T08:29:35.775Z,90.25
2023-03-31T08:34:43.137Z,90.30
2023-03-31T08:39:51.092Z,89.90
2023-03-31T08:45:04.529Z,89.52
2023-03-31T08:50:18.808Z,88.98
2023-03-31T08:55:33.412Z,88.39
2023-03-31T09:00:48.736Z,87.02
2023-03-31T09:06:02.846Z,86.23
2023-03-31T09:11:23.267Z,85.79
2023-03-31T09:16:37.571Z,85.83
2023-03-31T09:21:47.513Z,85.30
2023-03-31T09:26:58.497Z,84.33
2023-03-31T09:32:15.687Z,84.04
2023-03-31T09:37:23.413Z,83.73
2023-03-31T09:42:33.846Z,83.32
2023-03-31T09:47:44.862Z,82.43
2023-03-31T09:52:54.793Z,81.70
2023-03-31T09:58:08.106Z,81.22
2023-03-31T10:03:16.416Z,80.88
2023-03-31T10:08:29.761Z,80.01
2023-03-31T10:13:48.705Z,79.51
2023-03-31T10:18:54.748Z,79.42
2023-03-31T10:24:02.992Z,79.59
2023-03-31T10:29:18.536Z,79.13
2023-03-31T10:34:27.050Z,79.00
2023-03-31T10:39:34.775Z,79.17
2023-03-31T10:44:42.804Z,78.69
2023-03-31T10:49:58.170Z,78.33
2023-03-31T10:55:05.371Z,77.80
2023-03-31T11:00:26.010Z,77.55
2023-03-31T11:05:40.874Z,77.83
2023-03-31T11:11:22.876Z,77.58
2023-03-31T11:16:41.033Z,77.00
2023-03-31T11:22:03.464Z,77.16
2023-03-31T11:27:37.081Z,77.12
2023-03-31T11:32:57.950Z,77.56
2023-03-31T11:38:28.171Z,76.09
2023-03-31T11:43:42.523Z,76.03
2023-03-31T11:48:59.593Z,75.75
2023-03-31T11:54:12.585Z,74.37
2023-03-31T11:59:22.231Z,74.63
2023-03-31T12:04:38.633Z,73.59
2023-03-31T12:09:56.241Z,71.75
2023-03-31T12:15:14.983Z,72.75
2023-03-31T12:20:32.932Z,71.79
2023-03-31T12:25:50.016Z,72.14
2023-03-31T12:30:58.424Z,72.53
2023-03-31T12:36:30.745Z,72.24
2023-03-31T12:41:46.673Z,72.39
2023-03-31T12:47:42.297Z,71.99
2023-03-31T12:53:00.648Z,72.59
2023-03-31T12:58:49.495Z,70.94
2023-03-31T13:04:18.246Z,71.16
2023-03-31T13:09:53.342Z,70.94
2023-03-31T13:15:00.874Z,71.18
2023-03-31T13:20:36.316Z,71.25
2023-03-31T13:25:52.261Z,72.24
2023-03-31T13:31:02.785Z,71.24
2023-03-31T13:36:57.258Z,72.43
2023-03-31T13:42:24.983Z,72.24
2023-03-31T13:48:06.651Z,72.05
2023-03-31T13:53:34.726Z,71.19
2023-03-31T13:59:42.310Z,70.60
2023-03-31T14:05:24.457Z,70.05
2023-03-31T14:10:35.055Z,71.27
2023-03-31T14:15:48.156Z,70.10
2023-03-31T14:21:18.377Z,69.44
2023-03-31T14:26:47.455Z,70.01
2023-03-31T14:32:07.514Z,69.38
2023-03-31T14:37:18.104Z,70.30
2023-03-31T14:42:48.734Z,69.83
2023-03-31T14:48:05.051Z,69.07
2023-03-31T14:53:17.732Z,69.86
2023-03-31T14:58:29.700Z,69.68
2023-03-31T15:03:44.498Z,68.66
2023-03-31T15:08:51.915Z,69.35
2023-03-31T15:14:04.998Z,68.52
2023-03-31T15:19:18.568Z,68.77
2023-03-31T15:24:27.042Z,69.00
2023-03-31T15:29:39.717Z,68.45
2023-03-31T15:34:51.780Z,68.54
2023-03-31T15:40:00.901Z,69.28
2023-03-31T15:45:39.310Z,69.37
2023-03-31T15:50:48.042Z,70.29
2023-03-31T15:56:00.194Z,71.10
2023-03-31T16:01:08.179Z,71.46
2023-03-31T16:06:26.010Z,71.01
2023-03-31T16:11:42.861Z,71.87
2023-03-31T16:16:54.212Z,72.60
2023-03-31T16:22:05.115Z,72.93
2023-03-31T16:27:11.742Z,73.34
2023-03-31T16:32:21.038Z,73.95
2023-03-31T16:37:29.854Z,74.14
2023-03-31T16:42:36.663Z,74.12
2023-03-31T16:47:45.601Z,74.76
2023-03-31T16:52:54.650Z,75.62
2023-03-31T16:58:03.550Z,76.31
2023-03-31T17:03:12.703Z,76.92
2023-03-31T17:08:24.076Z,77.76
2023-03-31T17:13:32.945Z,81.06
2023-03-31T17:18:40.463Z,83.83
2023-03-31T17:23:50.044Z,84.82
2023-03-31T17:28:57.445Z,86.56
2023-03-31T17:34:05.218Z,88.45
2023-03-31T17:39:14.820Z,90.12
2023-03-31T17:44:24.201Z,89.19
2023-03-31T17:49:33.341Z,88.61
2023-03-31T17:54:42.739Z,89.66
2023-03-31T18:01:30.753Z,90.07
2023-03-31T18:06:39.667Z,89.47
2023-03-31T18:11:49.600Z,89.55
2023-03-31T18:16:59.854Z,89.99
2023-03-31T18:22:08.939Z,90.70
2023-03-31T18:27:19.064Z,91.83
2023-03-31T18:32:29.330Z,91.33
2023-03-31T18:37:38.266Z,91.23
2023-03-31T18:42:51.073Z,91.77
2023-03-31T18:48:03.530Z,92.40
2023-03-31T18:53:15.768Z,92.42
2023-03-31T18:58:29.856Z,92.65
2023-03-31T19:03:41.190Z,92.84
2023-03-31T19:08:50.385Z,92.53
2023-03-31T19:14:01.201Z,94.08
2023-03-31T19:19:16.294Z,94.21
2023-03-31T19:24:37.758Z,94.72
2023-03-31T19:30:03.070Z,94.72
2023-03-31T19:35:17.378Z,95.13
2023-03-31T19:40:36.215Z,93.95
2023-03-31T19:45:46.081Z,93.44
2023-03-31T19:51:01.495Z,93.04
2023-03-31T19:56:19.731Z,94.10
2023-03-31T20:01:31.419Z,94.51
2023-03-31T20:06:47.020Z,95.18
2023-03-31T20:11:59.762Z,95.16
2023-03-31T20:17:09.438Z,95.13
2023-03-31T20:22:22.568Z,95.10
2023-03-31T20:27:31.388Z,94.99
2023-03-31T20:32:41.332Z,95.04
2023-03-31T20:37:52.535Z,95.41
2023-03-31T20:42:59.766Z,95.46
2023-03-31T20:48:08.448Z,95.42
2023-03-31T20:53:17.305Z,94.84
2023-03-31T20:58:24.765Z,94.92
2023-03-31T21:03:32.950Z,95.10
2023-03-31T21:08:42.910Z,94.71
2023-03-31T21:13:49.653Z,95.02
2023-03-31T21:18:59.397Z,95.16
2023-03-31T21:24:10.524Z,95.28
2023-03-31T21:29:19.581Z,94.56
2023-03-31T21:34:31.927Z,94.96
2023-03-31T21:39:42.766Z,94.81
2023-03-31T21:44:50.970Z,95.29
2023-03-31T21:49:57.841Z,95.01
2023-03-31T21:55:06.755Z,94.97
2023-03-31T22:00:16.144Z,95.08
2023-03-31T22:05:22.974Z,95.44
2023-03-31T22:10:31.318Z,95.80
2023-03-31T22:15:41.913Z,95.60
2023-03-31T22:20:48.953Z,95.40
2023-03-31T22:25:57.594Z,95.45
2023-03-31T22:31:04.955Z,94.93
2023-03-31T22:36:12.669Z,95.15
2023-03-31T22:41:20.888Z,94.97
2023-03-31T22:46:27.888Z,95.22
2023-03-31T22:51:35.353Z,95.21
2023-03-31T22:56:43.656Z,95.51
2023-03-31T23:01:54.280Z,95.43
2023-03-31T23:07:01.212Z,96.22
2023-03-31T23:12:09.258Z,95.85
2023-03-31T23:17:15.626Z,95.61
2023-03-31T23:22:22.269Z,95.90
2023-03-31T23:27:30.460Z,96.11
2023-03-31T23:32:37.056Z,96.45
2023-03-31T23:37:43.492Z,95.96
2023-03-31T23:42:51.535Z,95.74
2023-03-31T23:47:57.946Z,95.81
2023-03-31T23:53:04.262Z,95.76
2023-03-31T23:58:12.195Z,96.23
